sensor_id;sensor_type;location;lat;lon;timestamp;P1;durP1;ratioP1;P2;durP2;ratioP2
37529;SDS011;23374;52.758;6.872;2023-04-06T00:01:11;3.93;;;2.73;;
37529;SDS011;23374;52.758;6.872;2023-04-06T00:03:31;3.57;;;2.70;;
37529;SDS011;23374;52.758;6.872;2023-04-06T00:05:52;4.17;;;2.97;;
37529;SDS011;23374;52.758;6.872;2023-04-06T00:08:12;5.03;;;2.73;;
37529;SDS011;23374;52.758;6.872;2023-04-06T00:10:33;4.70;;;2.90;;
37529;SDS011;23374;52.758;6.872;2023-04-06T00:12:54;5.60;;;3.17;;
37529;SDS011;23374;52.758;6.872;2023-04-06T00:15:17;3.23;;;2.67;;
37529;SDS011;23374;52.758;6.872;2023-04-06T00:17:37;3.97;;;3.07;;
37529;SDS011;23374;52.758;6.872;2023-04-06T00:19:58;4.93;;;2.90;;
37529;SDS011;23374;52.758;6.872;2023-04-06T00:22:18;4.00;;;2.57;;
37529;SDS011;23374;52.758;6.872;2023-04-06T00:24:38;5.23;;;3.10;;
37529;SDS011;23374;52.758;6.872;2023-04-06T00:26:59;5.43;;;3.00;;
37529;SDS011;23374;52.758;6.872;2023-04-06T00:29:19;4.30;;;3.00;;
37529;SDS011;23374;52.758;6.872;2023-04-06T00:31:39;4.17;;;2.90;;
37529;SDS011;23374;52.758;6.872;2023-04-06T00:34:00;6.23;;;3.40;;
37529;SDS011;23374;52.758;6.872;2023-04-06T00:36:20;4.60;;;3.17;;
37529;SDS011;23374;52.758;6.872;2023-04-06T00:38:41;4.50;;;3.10;;
37529;SDS011;23374;52.758;6.872;2023-04-06T00:41:03;4.17;;;3.03;;
37529;SDS011;23374;52.758;6.872;2023-04-06T00:43:24;5.70;;;3.40;;
37529;SDS011;23374;52.758;6.872;2023-04-06T00:45:44;5.27;;;3.33;;
37529;SDS011;23374;52.758;6.872;2023-04-06T00:48:05;6.83;;;3.90;;
37529;SDS011;23374;52.758;6.872;2023-04-06T00:50:26;7.43;;;3.67;;
37529;SDS011;23374;52.758;6.872;2023-04-06T00:52:47;5.40;;;3.93;;
37529;SDS011;23374;52.758;6.872;2023-04-06T00:55:07;5.80;;;3.53;;
37529;SDS011;23374;52.758;6.872;2023-04-06T00:57:28;5.57;;;3.77;;
37529;SDS011;23374;52.758;6.872;2023-04-06T00:59:49;3.97;;;3.37;;
37529;SDS011;23374;52.758;6.872;2023-04-06T01:02:10;5.20;;;3.63;;
37529;SDS011;23374;52.758;6.872;2023-04-06T01:06:12;6.50;;;3.47;;
37529;SDS011;23374;52.758;6.872;2023-04-06T01:08:32;7.67;;;3.73;;
37529;SDS011;23374;52.758;6.872;2023-04-06T01:10:53;5.93;;;3.07;;
37529;SDS011;23374;52.758;6.872;2023-04-06T01:13:14;9.57;;;3.87;;
37529;SDS011;23374;52.758;6.872;2023-04-06T01:15:35;9.03;;;3.53;;
37529;SDS011;23374;52.758;6.872;2023-04-06T01:17:58;6.50;;;3.20;;
37529;SDS011;23374;52.758;6.872;2023-04-06T01:20:18;8.03;;;3.73;;
37529;SDS011;23374;52.758;6.872;2023-04-06T01:22:39;4.83;;;3.50;;
37529;SDS011;23374;52.758;6.872;2023-04-06T01:24:59;5.57;;;3.20;;
37529;SDS011;23374;52.758;6.872;2023-04-06T01:27:20;5.37;;;3.77;;
37529;SDS011;23374;52.758;6.872;2023-04-06T01:29:40;5.97;;;3.33;;
37529;SDS011;23374;52.758;6.872;2023-04-06T01:32:01;9.47;;;4.03;;
37529;SDS011;23374;52.758;6.872;2023-04-06T01:34:22;6.43;;;3.90;;
37529;SDS011;23374;52.758;6.872;2023-04-06T01:36:42;8.83;;;3.43;;
37529;SDS011;23374;52.758;6.872;2023-04-06T01:39:02;5.20;;;3.47;;
37529;SDS011;23374;52.758;6.872;2023-04-06T01:41:23;8.03;;;3.63;;
37529;SDS011;23374;52.758;6.872;2023-04-06T01:43:44;8.70;;;4.27;;
37529;SDS011;23374;52.758;6.872;2023-04-06T01:46:07;7.63;;;3.70;;
37529;SDS011;23374;52.758;6.872;2023-04-06T01:48:27;7.43;;;3.70;;
37529;SDS011;23374;52.758;6.872;2023-04-06T01:50:47;5.93;;;4.07;;
37529;SDS011;23374;52.758;6.872;2023-04-06T01:53:08;5.80;;;3.80;;
37529;SDS011;23374;52.758;6.872;2023-04-06T01:55:28;7.63;;;3.53;;
37529;SDS011;23374;52.758;6.872;2023-04-06T01:57:48;5.33;;;3.53;;
37529;SDS011;23374;52.758;6.872;2023-04-06T02:00:10;5.43;;;3.57;;
37529;SDS011;23374;52.758;6.872;2023-04-06T02:02:31;5.83;;;3.40;;
37529;SDS011;23374;52.758;6.872;2023-04-06T02:04:52;7.30;;;3.77;;
37529;SDS011;23374;52.758;6.872;2023-04-06T02:07:12;4.90;;;3.37;;
37529;SDS011;23374;52.758;6.872;2023-04-06T02:09:32;7.03;;;3.87;;
37529;SDS011;23374;52.758;6.872;2023-04-06T02:11:53;5.60;;;3.37;;
37529;SDS011;23374;52.758;6.872;2023-04-06T02:14:13;6.53;;;4.00;;
37529;SDS011;23374;52.758;6.872;2023-04-06T02:16:33;5.07;;;3.20;;
37529;SDS011;23374;52.758;6.872;2023-04-06T02:18:53;6.20;;;3.80;;
37529;SDS011;23374;52.758;6.872;2023-04-06T02:21:14;7.17;;;4.03;;
37529;SDS011;23374;52.758;6.872;2023-04-06T02:23:37;5.30;;;3.70;;
37529;SDS011;23374;52.758;6.872;2023-04-06T02:25:57;5.97;;;3.60;;
37529;SDS011;23374;52.758;6.872;2023-04-06T02:28:17;4.30;;;3.40;;
37529;SDS011;23374;52.758;6.872;2023-04-06T02:30:38;4.43;;;3.30;;
37529;SDS011;23374;52.758;6.872;2023-04-06T02:33:00;7.17;;;3.57;;
37529;SDS011;23374;52.758;6.872;2023-04-06T02:35:21;6.83;;;3.17;;
37529;SDS011;23374;52.758;6.872;2023-04-06T02:37:41;4.20;;;3.43;;
37529;SDS011;23374;52.758;6.872;2023-04-06T02:40:02;10.37;;;4.10;;
37529;SDS011;23374;52.758;6.872;2023-04-06T02:42:23;6.03;;;3.83;;
37529;SDS011;23374;52.758;6.872;2023-04-06T02:44:43;6.20;;;4.23;;
37529;SDS011;23374;52.758;6.872;2023-04-06T02:47:04;6.47;;;3.80;;
37529;SDS011;23374;52.758;6.872;2023-04-06T02:49:24;5.87;;;3.87;;
37529;SDS011;23374;52.758;6.872;2023-04-06T02:51:45;6.47;;;3.83;;
37529;SDS011;23374;52.758;6.872;2023-04-06T02:54:05;5.03;;;3.67;;
37529;SDS011;23374;52.758;6.872;2023-04-06T02:56:25;6.03;;;3.73;;
37529;SDS011;23374;52.758;6.872;2023-04-06T02:58:46;5.40;;;3.67;;
37529;SDS011;23374;52.758;6.872;2023-04-06T03:01:07;5.13;;;3.50;;
37529;SDS011;23374;52.758;6.872;2023-04-06T03:03:28;4.03;;;3.23;;
37529;SDS011;23374;52.758;6.872;2023-04-06T03:05:48;8.67;;;3.77;;
37529;SDS011;23374;52.758;6.872;2023-04-06T03:08:08;5.60;;;4.13;;
37529;SDS011;23374;52.758;6.872;2023-04-06T03:10:29;8.03;;;3.70;;
37529;SDS011;23374;52.758;6.872;2023-04-06T03:12:49;6.03;;;3.97;;
37529;SDS011;23374;52.758;6.872;2023-04-06T03:15:10;7.90;;;3.90;;
37529;SDS011;23374;52.758;6.872;2023-04-06T03:17:31;9.73;;;4.10;;
37529;SDS011;23374;52.758;6.872;2023-04-06T03:19:51;6.47;;;3.37;;
37529;SDS011;23374;52.758;6.872;2023-04-06T03:22:12;5.13;;;3.60;;
37529;SDS011;23374;52.758;6.872;2023-04-06T03:24:32;6.73;;;3.77;;
37529;SDS011;23374;52.758;6.872;2023-04-06T03:26:53;4.90;;;3.53;;
37529;SDS011;23374;52.758;6.872;2023-04-06T03:29:13;8.90;;;4.87;;
37529;SDS011;23374;52.758;6.872;2023-04-06T03:31:34;6.90;;;4.00;;
37529;SDS011;23374;52.758;6.872;2023-04-06T03:33:55;6.37;;;3.90;;
37529;SDS011;23374;52.758;6.872;2023-04-06T03:36:15;7.00;;;4.17;;
37529;SDS011;23374;52.758;6.872;2023-04-06T03:38:36;6.37;;;4.43;;
37529;SDS011;23374;52.758;6.872;2023-04-06T03:40:56;8.83;;;4.63;;
37529;SDS011;23374;52.758;6.872;2023-04-06T03:43:17;6.67;;;3.93;;
37529;SDS011;23374;52.758;6.872;2023-04-06T03:45:37;7.30;;;3.97;;
37529;SDS011;23374;52.758;6.872;2023-04-06T03:47:58;7.80;;;4.27;;
37529;SDS011;23374;52.758;6.872;2023-04-06T03:50:18;7.13;;;4.33;;
37529;SDS011;23374;52.758;6.872;2023-04-06T03:52:39;6.50;;;3.50;;
37529;SDS011;23374;52.758;6.872;2023-04-06T03:54:59;11.73;;;4.67;;
37529;SDS011;23374;52.758;6.872;2023-04-06T03:57:20;6.73;;;4.13;;
37529;SDS011;23374;52.758;6.872;2023-04-06T03:59:40;6.23;;;4.43;;
37529;SDS011;23374;52.758;6.872;2023-04-06T04:02:00;6.40;;;4.13;;
37529;SDS011;23374;52.758;6.872;2023-04-06T04:04:20;4.73;;;3.57;;
37529;SDS011;23374;52.758;6.872;2023-04-06T04:06:41;8.57;;;4.20;;
37529;SDS011;23374;52.758;6.872;2023-04-06T04:09:01;7.10;;;4.03;;
37529;SDS011;23374;52.758;6.872;2023-04-06T04:11:22;6.30;;;3.93;;
37529;SDS011;23374;52.758;6.872;2023-04-06T04:13:42;7.17;;;4.13;;
37529;SDS011;23374;52.758;6.872;2023-04-06T04:16:03;6.90;;;4.63;;
37529;SDS011;23374;52.758;6.872;2023-04-06T04:18:24;8.10;;;4.13;;
37529;SDS011;23374;52.758;6.872;2023-04-06T04:20:45;7.50;;;4.60;;
37529;SDS011;23374;52.758;6.872;2023-04-06T04:23:06;6.50;;;4.17;;
37529;SDS011;23374;52.758;6.872;2023-04-06T04:25:26;7.40;;;4.40;;
37529;SDS011;23374;52.758;6.872;2023-04-06T04:27:47;7.43;;;4.33;;
37529;SDS011;23374;52.758;6.872;2023-04-06T04:30:08;9.87;;;4.47;;
37529;SDS011;23374;52.758;6.872;2023-04-06T04:32:28;6.97;;;3.90;;
37529;SDS011;23374;52.758;6.872;2023-04-06T04:34:49;8.57;;;4.47;;
37529;SDS011;23374;52.758;6.872;2023-04-06T04:37:09;6.87;;;4.27;;
37529;SDS011;23374;52.758;6.872;2023-04-06T04:39:30;7.77;;;3.57;;
37529;SDS011;23374;52.758;6.872;2023-04-06T04:41:50;6.90;;;3.97;;
37529;SDS011;23374;52.758;6.872;2023-04-06T04:44:11;7.30;;;4.20;;
37529;SDS011;23374;52.758;6.872;2023-04-06T04:46:31;10.33;;;3.53;;
37529;SDS011;23374;52.758;6.872;2023-04-06T04:48:51;7.93;;;4.03;;
37529;SDS011;23374;52.758;6.872;2023-04-06T04:51:12;6.47;;;4.27;;
37529;SDS011;23374;52.758;6.872;2023-04-06T04:53:33;5.93;;;4.03;;
37529;SDS011;23374;52.758;6.872;2023-04-06T04:55:54;6.90;;;4.10;;
37529;SDS011;23374;52.758;6.872;2023-04-06T04:58:14;8.53;;;4.60;;
37529;SDS011;23374;52.758;6.872;2023-04-06T05:00:36;5.77;;;3.83;;
37529;SDS011;23374;52.758;6.872;2023-04-06T05:02:56;5.10;;;3.77;;
37529;SDS011;23374;52.758;6.872;2023-04-06T05:05:17;7.63;;;4.47;;
37529;SDS011;23374;52.758;6.872;2023-04-06T05:07:37;6.90;;;4.33;;
37529;SDS011;23374;52.758;6.872;2023-04-06T05:09:58;11.10;;;4.77;;
37529;SDS011;23374;52.758;6.872;2023-04-06T05:12:18;5.93;;;4.20;;
37529;SDS011;23374;52.758;6.872;2023-04-06T05:14:39;9.43;;;4.93;;
37529;SDS011;23374;52.758;6.872;2023-04-06T05:17:00;7.03;;;4.47;;
37529;SDS011;23374;52.758;6.872;2023-04-06T05:19:20;6.00;;;4.13;;
37529;SDS011;23374;52.758;6.872;2023-04-06T05:21:41;8.90;;;5.10;;
37529;SDS011;23374;52.758;6.872;2023-04-06T05:24:01;8.47;;;4.60;;
37529;SDS011;23374;52.758;6.872;2023-04-06T05:26:22;6.70;;;4.40;;
37529;SDS011;23374;52.758;6.872;2023-04-06T05:28:42;7.97;;;4.83;;
37529;SDS011;23374;52.758;6.872;2023-04-06T05:31:04;7.87;;;4.97;;
37529;SDS011;23374;52.758;6.872;2023-04-06T05:33:25;8.00;;;4.37;;
37529;SDS011;23374;52.758;6.872;2023-04-06T05:35:46;8.33;;;4.63;;
37529;SDS011;23374;52.758;6.872;2023-04-06T05:38:07;9.70;;;4.77;;
37529;SDS011;23374;52.758;6.872;2023-04-06T05:40:29;7.33;;;4.83;;
37529;SDS011;23374;52.758;6.872;2023-04-06T05:42:49;9.27;;;4.63;;
37529;SDS011;23374;52.758;6.872;2023-04-06T05:45:11;8.63;;;4.50;;
37529;SDS011;23374;52.758;6.872;2023-04-06T05:47:37;7.63;;;4.83;;
37529;SDS011;23374;52.758;6.872;2023-04-06T05:49:58;6.80;;;4.53;;
37529;SDS011;23374;52.758;6.872;2023-04-06T05:52:18;7.90;;;4.30;;
37529;SDS011;23374;52.758;6.872;2023-04-06T05:54:39;7.70;;;4.47;;
37529;SDS011;23374;52.758;6.872;2023-04-06T05:57:01;6.27;;;4.10;;
37529;SDS011;23374;52.758;6.872;2023-04-06T05:59:22;8.13;;;4.37;;
37529;SDS011;23374;52.758;6.872;2023-04-06T06:01:43;7.93;;;5.00;;
37529;SDS011;23374;52.758;6.872;2023-04-06T06:04:03;8.07;;;4.33;;
37529;SDS011;23374;52.758;6.872;2023-04-06T06:06:24;7.57;;;4.83;;
37529;SDS011;23374;52.758;6.872;2023-04-06T06:08:44;5.73;;;3.57;;
37529;SDS011;23374;52.758;6.872;2023-04-06T06:11:05;6.83;;;3.87;;
37529;SDS011;23374;52.758;6.872;2023-04-06T06:13:26;7.33;;;4.50;;
37529;SDS011;23374;52.758;6.872;2023-04-06T06:15:47;8.80;;;5.17;;
37529;SDS011;23374;52.758;6.872;2023-04-06T06:18:07;8.47;;;5.20;;
37529;SDS011;23374;52.758;6.872;2023-04-06T06:20:28;8.80;;;4.30;;
37529;SDS011;23374;52.758;6.872;2023-04-06T06:22:48;7.67;;;3.80;;
37529;SDS011;23374;52.758;6.872;2023-04-06T06:25:09;6.97;;;4.77;;
37529;SDS011;23374;52.758;6.872;2023-04-06T06:27:29;10.13;;;4.77;;
37529;SDS011;23374;52.758;6.872;2023-04-06T06:29:50;12.53;;;4.80;;
37529;SDS011;23374;52.758;6.872;2023-04-06T06:32:10;12.67;;;5.30;;
37529;SDS011;23374;52.758;6.872;2023-04-06T06:34:31;9.00;;;5.27;;
37529;SDS011;23374;52.758;6.872;2023-04-06T06:36:51;7.57;;;4.73;;
37529;SDS011;23374;52.758;6.872;2023-04-06T06:39:14;10.50;;;4.90;;
37529;SDS011;23374;52.758;6.872;2023-04-06T06:41:34;9.47;;;5.23;;
37529;SDS011;23374;52.758;6.872;2023-04-06T06:43:55;9.37;;;4.57;;
37529;SDS011;23374;52.758;6.872;2023-04-06T06:46:15;8.57;;;4.67;;
37529;SDS011;23374;52.758;6.872;2023-04-06T06:48:36;10.20;;;5.33;;
37529;SDS011;23374;52.758;6.872;2023-04-06T06:50:56;9.97;;;4.80;;
37529;SDS011;23374;52.758;6.872;2023-04-06T06:53:17;12.97;;;6.43;;
37529;SDS011;23374;52.758;6.872;2023-04-06T06:55:38;8.70;;;5.10;;
37529;SDS011;23374;52.758;6.872;2023-04-06T06:57:58;9.90;;;5.43;;
37529;SDS011;23374;52.758;6.872;2023-04-06T07:00:19;11.87;;;5.90;;
37529;SDS011;23374;52.758;6.872;2023-04-06T07:02:42;9.53;;;5.30;;
37529;SDS011;23374;52.758;6.872;2023-04-06T07:05:03;9.47;;;5.30;;
37529;SDS011;23374;52.758;6.872;2023-04-06T07:07:24;10.07;;;5.80;;
37529;SDS011;23374;52.758;6.872;2023-04-06T07:09:44;12.47;;;5.70;;
37529;SDS011;23374;52.758;6.872;2023-04-06T07:12:05;9.67;;;4.70;;
37529;SDS011;23374;52.758;6.872;2023-04-06T07:14:25;7.67;;;4.87;;
37529;SDS011;23374;52.758;6.872;2023-04-06T07:16:46;9.10;;;5.73;;
37529;SDS011;23374;52.758;6.872;2023-04-06T07:19:08;8.83;;;4.70;;
37529;SDS011;23374;52.758;6.872;2023-04-06T07:21:29;6.93;;;4.27;;
37529;SDS011;23374;52.758;6.872;2023-04-06T07:23:50;10.80;;;5.47;;
37529;SDS011;23374;52.758;6.872;2023-04-06T07:26:10;9.60;;;5.87;;
37529;SDS011;23374;52.758;6.872;2023-04-06T07:28:30;8.33;;;4.47;;
37529;SDS011;23374;52.758;6.872;2023-04-06T07:30:51;8.73;;;5.37;;
37529;SDS011;23374;52.758;6.872;2023-04-06T07:33:11;9.83;;;5.63;;
37529;SDS011;23374;52.758;6.872;2023-04-06T07:35:32;10.83;;;5.93;;
37529;SDS011;23374;52.758;6.872;2023-04-06T07:37:53;6.77;;;4.43;;
37529;SDS011;23374;52.758;6.872;2023-04-06T07:40:14;8.83;;;5.47;;
37529;SDS011;23374;52.758;6.872;2023-04-06T07:42:34;9.60;;;5.60;;
37529;SDS011;23374;52.758;6.872;2023-04-06T07:44:55;8.57;;;4.40;;
37529;SDS011;23374;52.758;6.872;2023-04-06T07:47:15;10.87;;;5.77;;
37529;SDS011;23374;52.758;6.872;2023-04-06T07:49:36;9.90;;;6.47;;
37529;SDS011;23374;52.758;6.872;2023-04-06T07:51:56;12.80;;;6.20;;
37529;SDS011;23374;52.758;6.872;2023-04-06T07:54:16;9.40;;;5.87;;
37529;SDS011;23374;52.758;6.872;2023-04-06T07:56:37;11.13;;;6.63;;
37529;SDS011;23374;52.758;6.872;2023-04-06T07:58:57;11.20;;;6.33;;
37529;SDS011;23374;52.758;6.872;2023-04-06T08:01:18;10.50;;;6.20;;
37529;SDS011;23374;52.758;6.872;2023-04-06T08:03:39;11.70;;;6.27;;
37529;SDS011;23374;52.758;6.872;2023-04-06T08:05:59;10.90;;;6.50;;
37529;SDS011;23374;52.758;6.872;2023-04-06T08:08:20;11.83;;;6.07;;
37529;SDS011;23374;52.758;6.872;2023-04-06T08:10:40;10.57;;;6.07;;
37529;SDS011;23374;52.758;6.872;2023-04-06T08:13:01;11.33;;;6.63;;
37529;SDS011;23374;52.758;6.872;2023-04-06T08:15:21;13.03;;;6.93;;
37529;SDS011;23374;52.758;6.872;2023-04-06T08:17:42;13.20;;;5.87;;
37529;SDS011;23374;52.758;6.872;2023-04-06T08:20:03;9.50;;;5.43;;
37529;SDS011;23374;52.758;6.872;2023-04-06T08:22:24;13.83;;;6.40;;
37529;SDS011;23374;52.758;6.872;2023-04-06T08:24:44;10.53;;;5.80;;
37529;SDS011;23374;52.758;6.872;2023-04-06T08:27:05;13.10;;;6.47;;
37529;SDS011;23374;52.758;6.872;2023-04-06T08:29:25;11.00;;;6.13;;
37529;SDS011;23374;52.758;6.872;2023-04-06T08:31:45;12.87;;;6.57;;
37529;SDS011;23374;52.758;6.872;2023-04-06T08:34:06;11.67;;;6.27;;
37529;SDS011;23374;52.758;6.872;2023-04-06T08:36:26;10.50;;;5.80;;
37529;SDS011;23374;52.758;6.872;2023-04-06T08:38:47;14.03;;;6.83;;
37529;SDS011;23374;52.758;6.872;2023-04-06T08:41:12;12.93;;;6.43;;
37529;SDS011;23374;52.758;6.872;2023-04-06T08:43:33;8.30;;;5.33;;
37529;SDS011;23374;52.758;6.872;2023-04-06T08:46:07;11.10;;;6.13;;
37529;SDS011;23374;52.758;6.872;2023-04-06T08:48:29;12.00;;;6.27;;
37529;SDS011;23374;52.758;6.872;2023-04-06T08:50:50;10.43;;;6.10;;
37529;SDS011;23374;52.758;6.872;2023-04-06T08:53:10;13.50;;;5.97;;
37529;SDS011;23374;52.758;6.872;2023-04-06T08:55:31;11.80;;;7.20;;
37529;SDS011;23374;52.758;6.872;2023-04-06T08:57:53;15.57;;;7.90;;
37529;SDS011;23374;52.758;6.872;2023-04-06T09:00:15;10.07;;;6.20;;
37529;SDS011;23374;52.758;6.872;2023-04-06T09:02:41;14.37;;;6.63;;
37529;SDS011;23374;52.758;6.872;2023-04-06T09:05:03;14.40;;;7.27;;
37529;SDS011;23374;52.758;6.872;2023-04-06T09:07:25;9.07;;;5.17;;
37529;SDS011;23374;52.758;6.872;2023-04-06T09:09:45;14.33;;;6.77;;
37529;SDS011;23374;52.758;6.872;2023-04-06T09:12:09;10.70;;;6.63;;
37529;SDS011;23374;52.758;6.872;2023-04-06T09:14:36;18.73;;;7.63;;
37529;SDS011;23374;52.758;6.872;2023-04-06T09:16:57;10.10;;;6.80;;
37529;SDS011;23374;52.758;6.872;2023-04-06T09:19:17;11.13;;;7.00;;
37529;SDS011;23374;52.758;6.872;2023-04-06T09:21:38;11.30;;;7.27;;
37529;SDS011;23374;52.758;6.872;2023-04-06T09:24:00;10.57;;;6.87;;
37529;SDS011;23374;52.758;6.872;2023-04-06T09:26:21;15.00;;;8.00;;
37529;SDS011;23374;52.758;6.872;2023-04-06T09:28:51;14.20;;;7.47;;
37529;SDS011;23374;52.758;6.872;2023-04-06T09:31:27;14.50;;;6.97;;
37529;SDS011;23374;52.758;6.872;2023-04-06T09:33:49;9.80;;;5.60;;
37529;SDS011;23374;52.758;6.872;2023-04-06T09:36:11;13.20;;;6.90;;
37529;SDS011;23374;52.758;6.872;2023-04-06T09:38:33;11.80;;;7.17;;
37529;SDS011;23374;52.758;6.872;2023-04-06T09:40:53;14.47;;;7.57;;
37529;SDS011;23374;52.758;6.872;2023-04-06T09:43:23;14.17;;;7.70;;
37529;SDS011;23374;52.758;6.872;2023-04-06T09:45:45;13.17;;;6.97;;
37529;SDS011;23374;52.758;6.872;2023-04-06T09:48:07;13.63;;;8.07;;
37529;SDS011;23374;52.758;6.872;2023-04-06T09:50:27;10.43;;;5.60;;
37529;SDS011;23374;52.758;6.872;2023-04-06T09:52:51;15.40;;;7.93;;
37529;SDS011;23374;52.758;6.872;2023-04-06T09:55:35;13.33;;;8.10;;
37529;SDS011;23374;52.758;6.872;2023-04-06T09:58:04;14.67;;;8.03;;
37529;SDS011;23374;52.758;6.872;2023-04-06T10:00:26;13.27;;;7.83;;
37529;SDS011;23374;52.758;6.872;2023-04-06T10:12:16;17.67;;;8.20;;
37529;SDS011;23374;52.758;6.872;2023-04-06T10:14:36;15.07;;;8.30;;
37529;SDS011;23374;52.758;6.872;2023-04-06T10:16:57;17.23;;;8.97;;
37529;SDS011;23374;52.758;6.872;2023-04-06T10:19:24;27.37;;;9.97;;
37529;SDS011;23374;52.758;6.872;2023-04-06T10:21:49;12.80;;;8.50;;
37529;SDS011;23374;52.758;6.872;2023-04-06T10:24:11;13.87;;;8.67;;
37529;SDS011;23374;52.758;6.872;2023-04-06T10:26:33;16.27;;;9.20;;
37529;SDS011;23374;52.758;6.872;2023-04-06T10:28:54;16.93;;;8.90;;
37529;SDS011;23374;52.758;6.872;2023-04-06T10:31:15;15.80;;;8.57;;
37529;SDS011;23374;52.758;6.872;2023-04-06T10:33:53;18.17;;;9.77;;
37529;SDS011;23374;52.758;6.872;2023-04-06T10:36:28;13.60;;;8.43;;
37529;SDS011;23374;52.758;6.872;2023-04-06T10:38:57;19.33;;;9.37;;
37529;SDS011;23374;52.758;6.872;2023-04-06T10:41:19;18.00;;;9.37;;
37529;SDS011;23374;52.758;6.872;2023-04-06T10:43:40;19.03;;;9.63;;
37529;SDS011;23374;52.758;6.872;2023-04-06T10:46:01;16.83;;;9.63;;
37529;SDS011;23374;52.758;6.872;2023-04-06T10:48:23;16.57;;;10.13;;
37529;SDS011;23374;52.758;6.872;2023-04-06T10:50:47;20.03;;;9.60;;
37529;SDS011;23374;52.758;6.872;2023-04-06T10:53:09;18.13;;;10.07;;
37529;SDS011;23374;52.758;6.872;2023-04-06T10:55:29;17.37;;;9.60;;
37529;SDS011;23374;52.758;6.872;2023-04-06T10:57:51;20.77;;;10.80;;
37529;SDS011;23374;52.758;6.872;2023-04-06T11:00:12;18.53;;;10.03;;
37529;SDS011;23374;52.758;6.872;2023-04-06T11:02:34;18.53;;;10.13;;
37529;SDS011;23374;52.758;6.872;2023-04-06T11:04:56;20.33;;;10.73;;
37529;SDS011;23374;52.758;6.872;2023-04-06T11:07:25;19.90;;;10.50;;
37529;SDS011;23374;52.758;6.872;2023-04-06T11:09:49;16.87;;;10.60;;
37529;SDS011;23374;52.758;6.872;2023-04-06T11:12:20;18.87;;;11.23;;
37529;SDS011;23374;52.758;6.872;2023-04-06T11:14:53;17.50;;;7.93;;
37529;SDS011;23374;52.758;6.872;2023-04-06T11:17:15;19.77;;;11.27;;
37529;SDS011;23374;52.758;6.872;2023-04-06T11:19:35;19.70;;;11.60;;
37529;SDS011;23374;52.758;6.872;2023-04-06T11:21:56;16.60;;;9.43;;
37529;SDS011;23374;52.758;6.872;2023-04-06T11:24:27;20.13;;;11.83;;
37529;SDS011;23374;52.758;6.872;2023-04-06T11:26:58;20.57;;;10.97;;
37529;SDS011;23374;52.758;6.872;2023-04-06T11:29:22;21.57;;;10.63;;
37529;SDS011;23374;52.758;6.872;2023-04-06T11:31:51;19.47;;;10.70;;
37529;SDS011;23374;52.758;6.872;2023-04-06T11:34:16;19.33;;;10.20;;
37529;SDS011;23374;52.758;6.872;2023-04-06T11:36:42;18.30;;;10.37;;
37529;SDS011;23374;52.758;6.872;2023-04-06T11:39:03;21.87;;;10.97;;
37529;SDS011;23374;52.758;6.872;2023-04-06T11:41:25;24.87;;;11.83;;
37529;SDS011;23374;52.758;6.872;2023-04-06T11:43:49;22.03;;;11.70;;
37529;SDS011;23374;52.758;6.872;2023-04-06T11:46:09;20.97;;;11.43;;
37529;SDS011;23374;52.758;6.872;2023-04-06T11:48:30;21.27;;;11.53;;
37529;SDS011;23374;52.758;6.872;2023-04-06T11:50:55;22.13;;;11.70;;
37529;SDS011;23374;52.758;6.872;2023-04-06T11:53:23;22.00;;;10.93;;
37529;SDS011;23374;52.758;6.872;2023-04-06T11:55:43;22.23;;;11.40;;
37529;SDS011;23374;52.758;6.872;2023-04-06T11:58:06;19.53;;;11.80;;
37529;SDS011;23374;52.758;6.872;2023-04-06T12:00:27;21.53;;;11.87;;
37529;SDS011;23374;52.758;6.872;2023-04-06T12:02:48;22.23;;;12.20;;
37529;SDS011;23374;52.758;6.872;2023-04-06T12:05:09;22.90;;;11.27;;
37529;SDS011;23374;52.758;6.872;2023-04-06T12:07:30;21.17;;;12.03;;
37529;SDS011;23374;52.758;6.872;2023-04-06T12:09:50;21.07;;;10.83;;
37529;SDS011;23374;52.758;6.872;2023-04-06T12:12:11;23.80;;;11.67;;
37529;SDS011;23374;52.758;6.872;2023-04-06T12:14:31;25.27;;;12.40;;
37529;SDS011;23374;52.758;6.872;2023-04-06T12:16:51;21.53;;;11.83;;
37529;SDS011;23374;52.758;6.872;2023-04-06T12:19:12;25.90;;;11.97;;
37529;SDS011;23374;52.758;6.872;2023-04-06T12:21:33;38.53;;;11.60;;
37529;SDS011;23374;52.758;6.872;2023-04-06T12:23:57;19.30;;;11.60;;
37529;SDS011;23374;52.758;6.872;2023-04-06T12:26:18;21.70;;;11.13;;
37529;SDS011;23374;52.758;6.872;2023-04-06T12:28:39;21.17;;;11.90;;
37529;SDS011;23374;52.758;6.872;2023-04-06T12:31:00;21.23;;;10.60;;
37529;SDS011;23374;52.758;6.872;2023-04-06T12:33:20;21.67;;;10.73;;
37529;SDS011;23374;52.758;6.872;2023-04-06T12:35:41;21.87;;;11.67;;
37529;SDS011;23374;52.758;6.872;2023-04-06T12:38:06;19.97;;;11.33;;
37529;SDS011;23374;52.758;6.872;2023-04-06T12:40:26;22.77;;;11.47;;
37529;SDS011;23374;52.758;6.872;2023-04-06T12:42:47;20.00;;;11.47;;
37529;SDS011;23374;52.758;6.872;2023-04-06T12:45:08;21.00;;;11.23;;
37529;SDS011;23374;52.758;6.872;2023-04-06T12:47:29;20.57;;;11.27;;
37529;SDS011;23374;52.758;6.872;2023-04-06T12:49:50;21.60;;;11.53;;
37529;SDS011;23374;52.758;6.872;2023-04-06T12:52:10;28.10;;;12.43;;
37529;SDS011;23374;52.758;6.872;2023-04-06T12:54:31;23.93;;;11.47;;
37529;SDS011;23374;52.758;6.872;2023-04-06T12:56:51;20.13;;;10.93;;
37529;SDS011;23374;52.758;6.872;2023-04-06T12:59:12;20.97;;;11.10;;
37529;SDS011;23374;52.758;6.872;2023-04-06T13:01:32;20.07;;;10.40;;
37529;SDS011;23374;52.758;6.872;2023-04-06T13:03:52;14.63;;;8.33;;
37529;SDS011;23374;52.758;6.872;2023-04-06T13:06:13;22.77;;;11.87;;
37529;SDS011;23374;52.758;6.872;2023-04-06T13:08:34;21.47;;;11.13;;
37529;SDS011;23374;52.758;6.872;2023-04-06T13:10:58;19.50;;;9.37;;
37529;SDS011;23374;52.758;6.872;2023-04-06T13:13:29;18.80;;;10.33;;
37529;SDS011;23374;52.758;6.872;2023-04-06T13:15:50;20.97;;;11.07;;
37529;SDS011;23374;52.758;6.872;2023-04-06T13:18:11;20.80;;;10.70;;
37529;SDS011;23374;52.758;6.872;2023-04-06T13:20:31;19.23;;;10.57;;
37529;SDS011;23374;52.758;6.872;2023-04-06T13:22:52;23.70;;;12.27;;
37529;SDS011;23374;52.758;6.872;2023-04-06T13:25:12;21.03;;;10.53;;
37529;SDS011;23374;52.758;6.872;2023-04-06T13:27:32;19.00;;;10.47;;
37529;SDS011;23374;52.758;6.872;2023-04-06T13:29:55;23.13;;;10.97;;
37529;SDS011;23374;52.758;6.872;2023-04-06T13:32:16;20.60;;;10.70;;
37529;SDS011;23374;52.758;6.872;2023-04-06T13:34:36;17.90;;;10.40;;
37529;SDS011;23374;52.758;6.872;2023-04-06T13:36:57;19.13;;;9.37;;
37529;SDS011;23374;52.758;6.872;2023-04-06T13:39:17;20.93;;;11.63;;
37529;SDS011;23374;52.758;6.872;2023-04-06T13:41:37;18.50;;;9.93;;
37529;SDS011;23374;52.758;6.872;2023-04-06T13:43:59;20.17;;;9.70;;
37529;SDS011;23374;52.758;6.872;2023-04-06T13:46:20;20.27;;;10.00;;
37529;SDS011;23374;52.758;6.872;2023-04-06T13:48:40;22.37;;;9.47;;
37529;SDS011;23374;52.758;6.872;2023-04-06T13:51:10;20.53;;;9.50;;
37529;SDS011;23374;52.758;6.872;2023-04-06T13:53:32;21.03;;;10.93;;
37529;SDS011;23374;52.758;6.872;2023-04-06T13:55:53;20.03;;;9.80;;
37529;SDS011;23374;52.758;6.872;2023-04-06T13:58:14;19.10;;;9.67;;
37529;SDS011;23374;52.758;6.872;2023-04-06T14:00:36;23.33;;;10.37;;
37529;SDS011;23374;52.758;6.872;2023-04-06T14:02:56;24.30;;;10.67;;
37529;SDS011;23374;52.758;6.872;2023-04-06T14:05:16;18.57;;;9.67;;
37529;SDS011;23374;52.758;6.872;2023-04-06T14:07:37;29.03;;;10.80;;
37529;SDS011;23374;52.758;6.872;2023-04-06T14:09:57;19.37;;;10.10;;
37529;SDS011;23374;52.758;6.872;2023-04-06T14:12:18;33.57;;;10.87;;
37529;SDS011;23374;52.758;6.872;2023-04-06T14:14:38;20.73;;;10.33;;